sensor_id;sensor_type;location;lat;lon;timestamp;temperature;humidity
71837;DHT22;59686;51.716;7.016;2023-05-07T00:02:00;18.20;82.40
71837;DHT22;59686;51.716;7.016;2023-05-07T00:04:26;18.10;82.40
71837;DHT22;59686;51.716;7.016;2023-05-07T00:06:52;18.10;82.40
71837;DHT22;59686;51.716;7.016;2023-05-07T00:09:17;18.20;82.40
71837;DHT22;59686;51.716;7.016;2023-05-07T00:11:43;18.10;82.40
71837;DHT22;59686;51.716;7.016;2023-05-07T00:14:08;18.20;82.50
71837;DHT22;59686;51.716;7.016;2023-05-07T00:16:42;18.20;83.20
71837;DHT22;59686;51.716;7.016;2023-05-07T00:19:08;18.10;82.50
71837;DHT22;59686;51.716;7.016;2023-05-07T00:21:34;18.10;82.50
71837;DHT22;59686;51.716;7.016;2023-05-07T00:23:59;18.10;82.50
71837;DHT22;59686;51.716;7.016;2023-05-07T00:26:25;18.10;82.50
71837;DHT22;59686;51.716;7.016;2023-05-07T00:28:50;18.10;82.60
71837;DHT22;59686;51.716;7.016;2023-05-07T00:31:16;18.20;82.60
71837;DHT22;59686;51.716;7.016;2023-05-07T00:33:42;18.10;82.60
71837;DHT22;59686;51.716;7.016;2023-05-07T00:36:07;18.10;82.60
71837;DHT22;59686;51.716;7.016;2023-05-07T00:38:33;18.10;82.60
71837;DHT22;59686;51.716;7.016;2023-05-07T00:40:59;18.10;82.70
71837;DHT22;59686;51.716;7.016;2023-05-07T00:43:25;18.10;82.70
71837;DHT22;59686;51.716;7.016;2023-05-07T00:45:51;18.10;82.70
71837;DHT22;59686;51.716;7.016;2023-05-07T00:48:17;18.00;82.70
71837;DHT22;59686;51.716;7.016;2023-05-07T00:50:42;18.10;82.80
71837;DHT22;59686;51.716;7.016;2023-05-07T00:53:08;18.10;82.80
71837;DHT22;59686;51.716;7.016;2023-05-07T00:55:35;18.10;82.80
71837;DHT22;59686;51.716;7.016;2023-05-07T00:58:01;18.00;82.80
71837;DHT22;59686;51.716;7.016;2023-05-07T01:00:26;18.10;82.90
71837;DHT22;59686;51.716;7.016;2023-05-07T01:02:52;18.00;82.80
71837;DHT22;59686;51.716;7.016;2023-05-07T01:05:19;18.00;82.80
71837;DHT22;59686;51.716;7.016;2023-05-07T01:07:46;17.90;82.80
71837;DHT22;59686;51.716;7.016;2023-05-07T01:10:13;18.00;82.80
71837;DHT22;59686;51.716;7.016;2023-05-07T01:12:40;18.00;82.90
71837;DHT22;59686;51.716;7.016;2023-05-07T01:15:07;18.00;82.90
71837;DHT22;59686;51.716;7.016;2023-05-07T01:17:35;17.90;82.90
71837;DHT22;59686;51.716;7.016;2023-05-07T01:20:01;17.90;82.90
71837;DHT22;59686;51.716;7.016;2023-05-07T01:25:04;17.90;82.90
71837;DHT22;59686;51.716;7.016;2023-05-07T01:27:30;17.90;82.90
71837;DHT22;59686;51.716;7.016;2023-05-07T01:29:56;17.90;83.00
71837;DHT22;59686;51.716;7.016;2023-05-07T01:32:28;17.90;83.10
71837;DHT22;59686;51.716;7.016;2023-05-07T01:34:55;17.90;83.00
71837;DHT22;59686;51.716;7.016;2023-05-07T01:37:21;17.90;83.00
71837;DHT22;59686;51.716;7.016;2023-05-07T01:39:48;17.90;83.00
71837;DHT22;59686;51.716;7.016;2023-05-07T01:42:13;17.90;83.00
71837;DHT22;59686;51.716;7.016;2023-05-07T01:44:39;17.90;83.80
71837;DHT22;59686;51.716;7.016;2023-05-07T01:47:06;17.90;83.10
71837;DHT22;59686;51.716;7.016;2023-05-07T01:49:32;17.80;83.00
71837;DHT22;59686;51.716;7.016;2023-05-07T01:51:58;17.90;83.10
71837;DHT22;59686;51.716;7.016;2023-05-07T01:54:27;17.90;83.20
71837;DHT22;59686;51.716;7.016;2023-05-07T01:56:55;17.90;83.20
71837;DHT22;59686;51.716;7.016;2023-05-07T01:59:21;17.80;83.20
71837;DHT22;59686;51.716;7.016;2023-05-07T02:01:47;17.80;83.90
71837;DHT22;59686;51.716;7.016;2023-05-07T02:04:13;17.80;83.20
71837;DHT22;59686;51.716;7.016;2023-05-07T02:06:38;17.80;83.20
71837;DHT22;59686;51.716;7.016;2023-05-07T02:09:05;17.80;83.20
71837;DHT22;59686;51.716;7.016;2023-05-07T02:11:30;17.80;83.20
71837;DHT22;59686;51.716;7.016;2023-05-07T02:13:56;17.90;83.40
71837;DHT22;59686;51.716;7.016;2023-05-07T02:16:22;17.70;83.20
71837;DHT22;59686;51.716;7.016;2023-05-07T02:18:48;17.80;83.30
71837;DHT22;59686;51.716;7.016;2023-05-07T02:21:15;17.80;83.30
71837;DHT22;59686;51.716;7.016;2023-05-07T02:23:40;17.80;83.40
71837;DHT22;59686;51.716;7.016;2023-05-07T02:26:06;17.80;83.40
71837;DHT22;59686;51.716;7.016;2023-05-07T02:28:32;17.70;83.30
71837;DHT22;59686;51.716;7.016;2023-05-07T02:31:02;17.70;83.30
71837;DHT22;59686;51.716;7.016;2023-05-07T02:33:28;17.80;83.40
71837;DHT22;59686;51.716;7.016;2023-05-07T02:35:53;17.70;83.50
71837;DHT22;59686;51.716;7.016;2023-05-07T02:38:32;17.80;83.50
71837;DHT22;59686;51.716;7.016;2023-05-07T02:40:58;17.60;83.40
71837;DHT22;59686;51.716;7.016;2023-05-07T02:43:24;17.60;83.40
71837;DHT22;59686;51.716;7.016;2023-05-07T02:45:49;17.70;83.50
71837;DHT22;59686;51.716;7.016;2023-05-07T02:48:25;17.70;83.50
71837;DHT22;59686;51.716;7.016;2023-05-07T02:50:51;17.70;83.50
71837;DHT22;59686;51.716;7.016;2023-05-07T02:53:16;17.70;83.60
71837;DHT22;59686;51.716;7.016;2023-05-07T02:55:42;17.70;84.30
71837;DHT22;59686;51.716;7.016;2023-05-07T02:58:08;17.70;83.60
71837;DHT22;59686;51.716;7.016;2023-05-07T03:00:33;17.70;83.60
71837;DHT22;59686;51.716;7.016;2023-05-07T03:02:59;17.70;83.60
71837;DHT22;59686;51.716;7.016;2023-05-07T03:05:25;17.70;83.60
71837;DHT22;59686;51.716;7.016;2023-05-07T03:07:50;17.70;83.60
71837;DHT22;59686;51.716;7.016;2023-05-07T03:10:16;17.60;83.70
71837;DHT22;59686;51.716;7.016;2023-05-07T03:12:42;17.60;83.70
71837;DHT22;59686;51.716;7.016;2023-05-07T03:15:08;17.60;83.60
71837;DHT22;59686;51.716;7.016;2023-05-07T03:17:34;17.60;83.70
71837;DHT22;59686;51.716;7.016;2023-05-07T03:19:59;17.60;83.70
71837;DHT22;59686;51.716;7.016;2023-05-07T03:22:25;17.60;83.70
71837;DHT22;59686;51.716;7.016;2023-05-07T03:24:51;17.60;83.70
71837;DHT22;59686;51.716;7.016;2023-05-07T03:27:16;17.60;83.70
71837;DHT22;59686;51.716;7.016;2023-05-07T03:29:42;17.60;83.80
71837;DHT22;59686;51.716;7.016;2023-05-07T03:32:08;17.60;83.80
71837;DHT22;59686;51.716;7.016;2023-05-07T03:34:33;17.60;83.70
71837;DHT22;59686;51.716;7.016;2023-05-07T03:36:59;17.60;83.80
71837;DHT22;59686;51.716;7.016;2023-05-07T03:39:25;17.60;83.80
71837;DHT22;59686;51.716;7.016;2023-05-07T03:41:51;17.60;83.80
71837;DHT22;59686;51.716;7.016;2023-05-07T03:44:16;17.50;83.80
71837;DHT22;59686;51.716;7.016;2023-05-07T03:46:42;17.50;83.80
71837;DHT22;59686;51.716;7.016;2023-05-07T03:49:08;17.50;83.80
71837;DHT22;59686;51.716;7.016;2023-05-07T03:51:33;17.50;83.80
71837;DHT22;59686;51.716;7.016;2023-05-07T03:53:59;17.50;83.80
71837;DHT22;59686;51.716;7.016;2023-05-07T03:56:24;17.50;83.90
71837;DHT22;59686;51.716;7.016;2023-05-07T03:58:52;17.50;83.80
71837;DHT22;59686;51.716;7.016;2023-05-07T04:01:17;17.40;83.80
71837;DHT22;59686;51.716;7.016;2023-05-07T04:03:43;17.50;83.90
71837;DHT22;59686;51.716;7.016;2023-05-07T04:06:09;17.50;84.00
71837;DHT22;59686;51.716;7.016;2023-05-07T04:08:35;17.40;83.90
71837;DHT22;59686;51.716;7.016;2023-05-07T04:11:00;17.50;84.00
71837;DHT22;59686;51.716;7.016;2023-05-07T04:13:26;17.50;84.00
71837;DHT22;59686;51.716;7.016;2023-05-07T04:15:52;17.40;83.90
71837;DHT22;59686;51.716;7.016;2023-05-07T04:18:18;17.50;84.00
71837;DHT22;59686;51.716;7.016;2023-05-07T04:20:44;17.40;83.90
71837;DHT22;59686;51.716;7.016;2023-05-07T04:23:09;17.40;83.90
71837;DHT22;59686;51.716;7.016;2023-05-07T04:25:35;17.40;83.90
71837;DHT22;59686;51.716;7.016;2023-05-07T04:28:01;17.50;84.00
71837;DHT22;59686;51.716;7.016;2023-05-07T04:30:27;17.40;84.00
71837;DHT22;59686;51.716;7.016;2023-05-07T04:32:52;17.40;84.00
71837;DHT22;59686;51.716;7.016;2023-05-07T04:35:18;17.40;84.10
71837;DHT22;59686;51.716;7.016;2023-05-07T04:37:44;17.40;84.10
71837;DHT22;59686;51.716;7.016;2023-05-07T04:40:10;17.40;84.10
71837;DHT22;59686;51.716;7.016;2023-05-07T04:42:36;17.40;84.10
71837;DHT22;59686;51.716;7.016;2023-05-07T04:45:02;17.40;84.10
71837;DHT22;59686;51.716;7.016;2023-05-07T04:47:28;17.40;84.10
71837;DHT22;59686;51.716;7.016;2023-05-07T04:49:53;17.40;84.10
71837;DHT22;59686;51.716;7.016;2023-05-07T04:52:19;17.30;84.00
71837;DHT22;59686;51.716;7.016;2023-05-07T04:54:45;17.40;84.10
71837;DHT22;59686;51.716;7.016;2023-05-07T04:57:12;17.40;84.10
71837;DHT22;59686;51.716;7.016;2023-05-07T04:59:38;17.40;84.20
71837;DHT22;59686;51.716;7.016;2023-05-07T05:02:03;17.40;84.20
71837;DHT22;59686;51.716;7.016;2023-05-07T05:04:29;17.30;84.20
71837;DHT22;59686;51.716;7.016;2023-05-07T05:06:55;17.30;84.20
71837;DHT22;59686;51.716;7.016;2023-05-07T05:09:21;17.30;84.20
71837;DHT22;59686;51.716;7.016;2023-05-07T05:11:47;17.40;84.20
71837;DHT22;59686;51.716;7.016;2023-05-07T05:14:14;17.30;84.20
71837;DHT22;59686;51.716;7.016;2023-05-07T05:16:39;17.40;84.20
71837;DHT22;59686;51.716;7.016;2023-05-07T05:19:05;17.30;84.20
71837;DHT22;59686;51.716;7.016;2023-05-07T05:21:31;17.40;84.30
71837;DHT22;59686;51.716;7.016;2023-05-07T05:23:57;17.30;84.30
71837;DHT22;59686;51.716;7.016;2023-05-07T05:26:23;17.30;84.40
71837;DHT22;59686;51.716;7.016;2023-05-07T05:28:49;17.30;84.40
71837;DHT22;59686;51.716;7.016;2023-05-07T05:31:16;17.30;84.40
71837;DHT22;59686;51.716;7.016;2023-05-07T05:33:42;17.30;84.40
71837;DHT22;59686;51.716;7.016;2023-05-07T05:36:12;17.30;84.50
71837;DHT22;59686;51.716;7.016;2023-05-07T05:38:39;17.30;84.40
71837;DHT22;59686;51.716;7.016;2023-05-07T05:41:05;17.30;84.50
71837;DHT22;59686;51.716;7.016;2023-05-07T05:43:31;17.30;84.50
71837;DHT22;59686;51.716;7.016;2023-05-07T05:45:57;17.30;84.50
71837;DHT22;59686;51.716;7.016;2023-05-07T05:48:23;17.30;84.50
71837;DHT22;59686;51.716;7.016;2023-05-07T05:50:48;17.30;84.60
71837;DHT22;59686;51.716;7.016;2023-05-07T05:53:21;17.30;84.70
71837;DHT22;59686;51.716;7.016;2023-05-07T05:55:47;17.30;84.70
71837;DHT22;59686;51.716;7.016;2023-05-07T05:58:13;17.30;84.80
71837;DHT22;59686;51.716;7.016;2023-05-07T06:00:51;17.30;84.70
71837;DHT22;59686;51.716;7.016;2023-05-07T06:03:17;17.30;84.70
71837;DHT22;59686;51.716;7.016;2023-05-07T06:05:43;17.20;84.80
71837;DHT22;59686;51.716;7.016;2023-05-07T06:08:13;17.20;84.80
71837;DHT22;59686;51.716;7.016;2023-05-07T06:10:38;17.20;84.80
71837;DHT22;59686;51.716;7.016;2023-05-07T06:13:04;17.20;84.80
71837;DHT22;59686;51.716;7.016;2023-05-07T06:15:33;17.30;84.90
71837;DHT22;59686;51.716;7.016;2023-05-07T06:17:59;17.20;85.60
71837;DHT22;59686;51.716;7.016;2023-05-07T06:20:24;17.20;87.10
71837;DHT22;59686;51.716;7.016;2023-05-07T06:22:50;17.10;88.30
71837;DHT22;59686;51.716;7.016;2023-05-07T06:25:17;17.00;88.50
71837;DHT22;59686;51.716;7.016;2023-05-07T06:27:43;17.00;89.20
71837;DHT22;59686;51.716;7.016;2023-05-07T06:30:08;17.00;89.10
71837;DHT22;59686;51.716;7.016;2023-05-07T06:32:34;17.10;88.60
71837;DHT22;59686;51.716;7.016;2023-05-07T06:35:00;17.10;88.20
71837;DHT22;59686;51.716;7.016;2023-05-07T06:37:28;17.10;87.90
71837;DHT22;59686;51.716;7.016;2023-05-07T06:39:53;17.10;87.50
71837;DHT22;59686;51.716;7.016;2023-05-07T06:42:19;17.00;87.30
71837;DHT22;59686;51.716;7.016;2023-05-07T06:44:45;17.10;87.20
71837;DHT22;59686;51.716;7.016;2023-05-07T06:47:10;17.10;87.10
71837;DHT22;59686;51.716;7.016;2023-05-07T06:49:38;17.10;86.90
71837;DHT22;59686;51.716;7.016;2023-05-07T06:52:04;17.10;86.80
71837;DHT22;59686;51.716;7.016;2023-05-07T06:54:29;17.10;87.40
71837;DHT22;59686;51.716;7.016;2023-05-07T06:56:55;17.10;86.60
71837;DHT22;59686;51.716;7.016;2023-05-07T06:59:21;17.10;86.50
71837;DHT22;59686;51.716;7.016;2023-05-07T07:01:46;17.10;86.70
71837;DHT22;59686;51.716;7.016;2023-05-07T07:04:12;17.20;86.70
71837;DHT22;59686;51.716;7.016;2023-05-07T07:06:38;17.10;86.60
71837;DHT22;59686;51.716;7.016;2023-05-07T07:09:03;17.20;86.60
71837;DHT22;59686;51.716;7.016;2023-05-07T07:11:29;17.20;86.50
71837;DHT22;59686;51.716;7.016;2023-05-07T07:13:55;17.30;86.60
71837;DHT22;59686;51.716;7.016;2023-05-07T07:16:22;17.20;86.50
71837;DHT22;59686;51.716;7.016;2023-05-07T07:18:47;17.20;86.30
71837;DHT22;59686;51.716;7.016;2023-05-07T07:21:13;17.20;86.40
71837;DHT22;59686;51.716;7.016;2023-05-07T07:23:38;17.20;86.40
71837;DHT22;59686;51.716;7.016;2023-05-07T07:26:04;17.20;86.30
71837;DHT22;59686;51.716;7.016;2023-05-07T07:28:31;17.20;86.40
71837;DHT22;59686;51.716;7.016;2023-05-07T07:30:57;17.20;86.40
71837;DHT22;59686;51.716;7.016;2023-05-07T07:33:22;17.20;86.50
71837;DHT22;59686;51.716;7.016;2023-05-07T07:35:48;17.20;86.40
71837;DHT22;59686;51.716;7.016;2023-05-07T07:38:13;17.20;86.30
71837;DHT22;59686;51.716;7.016;2023-05-07T07:40:41;17.20;86.40
71837;DHT22;59686;51.716;7.016;2023-05-07T07:43:09;17.20;86.30
71837;DHT22;59686;51.716;7.016;2023-05-07T07:45:39;17.20;86.40
71837;DHT22;59686;51.716;7.016;2023-05-07T07:48:06;17.30;86.50
71837;DHT22;59686;51.716;7.016;2023-05-07T07:50:31;17.30;86.40
71837;DHT22;59686;51.716;7.016;2023-05-07T07:52:57;17.20;86.30
71837;DHT22;59686;51.716;7.016;2023-05-07T07:55:23;17.30;86.40
71837;DHT22;59686;51.716;7.016;2023-05-07T07:57:53;17.30;86.10
71837;DHT22;59686;51.716;7.016;2023-05-07T08:00:19;17.30;86.20
71837;DHT22;59686;51.716;7.016;2023-05-07T08:02:45;17.30;86.30
71837;DHT22;59686;51.716;7.016;2023-05-07T08:05:11;17.30;86.40
71837;DHT22;59686;51.716;7.016;2023-05-07T08:07:36;17.40;86.40
71837;DHT22;59686;51.716;7.016;2023-05-07T08:10:02;17.30;86.30
71837;DHT22;59686;51.716;7.016;2023-05-07T08:12:28;17.30;86.30
71837;DHT22;59686;51.716;7.016;2023-05-07T08:14:54;17.30;86.30
71837;DHT22;59686;51.716;7.016;2023-05-07T08:17:20;17.30;86.20
71837;DHT22;59686;51.716;7.016;2023-05-07T08:19:48;17.30;86.10
71837;DHT22;59686;51.716;7.016;2023-05-07T08:22:13;17.30;86.10
71837;DHT22;59686;51.716;7.016;2023-05-07T08:24:40;17.40;86.10
71837;DHT22;59686;51.716;7.016;2023-05-07T08:27:05;17.40;86.10
71837;DHT22;59686;51.716;7.016;2023-05-07T08:29:31;17.30;86.10
71837;DHT22;59686;51.716;7.016;2023-05-07T08:31:57;17.40;86.30
71837;DHT22;59686;51.716;7.016;2023-05-07T08:34:22;17.50;86.30
71837;DHT22;59686;51.716;7.016;2023-05-07T08:36:48;17.40;86.30
71837;DHT22;59686;51.716;7.016;2023-05-07T08:39:15;17.50;86.30
71837;DHT22;59686;51.716;7.016;2023-05-07T08:41:44;17.40;86.20
71837;DHT22;59686;51.716;7.016;2023-05-07T08:44:14;17.40;86.90
71837;DHT22;59686;51.716;7.016;2023-05-07T08:46:41;17.40;86.20
71837;DHT22;59686;51.716;7.016;2023-05-07T08:49:08;17.40;86.30
71837;DHT22;59686;51.716;7.016;2023-05-07T08:51:35;17.40;86.40
71837;DHT22;59686;51.716;7.016;2023-05-07T08:54:01;17.40;86.50
71837;DHT22;59686;51.716;7.016;2023-05-07T08:56:27;17.40;86.50
71837;DHT22;59686;51.716;7.016;2023-05-07T08:58:53;17.40;86.30
71837;DHT22;59686;51.716;7.016;2023-05-07T09:01:22;17.40;86.30
71837;DHT22;59686;51.716;7.016;2023-05-07T09:03:47;17.40;86.30
71837;DHT22;59686;51.716;7.016;2023-05-07T09:06:13;17.40;86.30
71837;DHT22;59686;51.716;7.016;2023-05-07T09:08:39;17.40;86.40
71837;DHT22;59686;51.716;7.016;2023-05-07T09:11:05;17.40;86.30
71837;DHT22;59686;51.716;7.016;2023-05-07T09:13:31;17.40;86.30
71837;DHT22;59686;51.716;7.016;2023-05-07T09:15:56;17.40;86.30
71837;DHT22;59686;51.716;7.016;2023-05-07T09:18:25;17.40;86.30
71837;DHT22;59686;51.716;7.016;2023-05-07T09:20:51;17.40;86.10
71837;DHT22;59686;51.716;7.016;2023-05-07T09:23:17;17.50;86.10
71837;DHT22;59686;51.716;7.016;2023-05-07T09:25:42;17.30;86.10
71837;DHT22;59686;51.716;7.016;2023-05-07T09:28:08;17.50;86.20
71837;DHT22;59686;51.716;7.016;2023-05-07T09:30:35;17.40;86.20
71837;DHT22;59686;51.716;7.016;2023-05-07T09:33:03;17.40;86.10
71837;DHT22;59686;51.716;7.016;2023-05-07T09:35:29;17.50;86.10
71837;DHT22;59686;51.716;7.016;2023-05-07T09:37:56;17.50;86.00
71837;DHT22;59686;51.716;7.016;2023-05-07T09:40:25;17.50;85.80
71837;DHT22;59686;51.716;7.016;2023-05-07T09:43:11;17.50;85.70
71837;DHT22;59686;51.716;7.016;2023-05-07T09:45:38;17.60;85.80
71837;DHT22;59686;51.716;7.016;2023-05-07T09:48:05;17.60;85.70
71837;DHT22;59686;51.716;7.016;2023-05-07T09:50:46;17.60;85.60
71837;DHT22;59686;51.716;7.016;2023-05-07T09:53:14;17.50;85.40
71837;DHT22;59686;51.716;7.016;2023-05-07T09:55:41;17.60;85.50
71837;DHT22;59686;51.716;7.016;2023-05-07T09:58:07;17.60;85.30
71837;DHT22;59686;51.716;7.016;2023-05-07T10:00:35;17.70;85.30
71837;DHT22;59686;51.716;7.016;2023-05-07T10:03:01;17.70;85.30
71837;DHT22;59686;51.716;7.016;2023-05-07T10:05:28;17.70;85.30
71837;DHT22;59686;51.716;7.016;2023-05-07T10:07:54;17.70;85.20
71837;DHT22;59686;51.716;7.016;2023-05-07T10:10:22;17.70;85.30
71837;DHT22;59686;51.716;7.016;2023-05-07T10:12:49;17.70;85.30
71837;DHT22;59686;51.716;7.016;2023-05-07T10:15:16;17.70;85.20
71837;DHT22;59686;51.716;7.016;2023-05-07T10:17:42;17.70;85.20
71837;DHT22;59686;51.716;7.016;2023-05-07T10:20:08;17.70;85.10
71837;DHT22;59686;51.716;7.016;2023-05-07T10:22:39;17.80;85.00
71837;DHT22;59686;51.716;7.016;2023-05-07T10:25:18;17.70;85.00
71837;DHT22;59686;51.716;7.016;2023-05-07T10:27:45;17.80;84.90
71837;DHT22;59686;51.716;7.016;2023-05-07T10:32:59;17.90;84.90
71837;DHT22;59686;51.716;7.016;2023-05-07T10:35:37;17.90;84.70
71837;DHT22;59686;51.716;7.016;2023-05-07T10:38:04;17.80;84.70
71837;DHT22;59686;51.716;7.016;2023-05-07T10:40:30;17.90;84.60
71837;DHT22;59686;51.716;7.016;2023-05-07T10:42:58;17.90;84.60
71837;DHT22;59686;51.716;7.016;2023-05-07T10:45:28;17.80;84.50
71837;DHT22;59686;51.716;7.016;2023-05-07T10:48:13;17.90;84.60
71837;DHT22;59686;51.716;7.016;2023-05-07T10:50:45;17.90;84.50
71837;DHT22;59686;51.716;7.016;2023-05-07T10:55:47;17.90;84.50
71837;DHT22;59686;51.716;7.016;2023-05-07T10:58:25;17.90;84.50
71837;DHT22;59686;51.716;7.016;2023-05-07T11:00:57;17.90;84.50
71837;DHT22;59686;51.716;7.016;2023-05-07T11:03:25;17.90;84.40
71837;DHT22;59686;51.716;7.016;2023-05-07T11:06:13;17.90;84.30
71837;DHT22;59686;51.716;7.016;2023-05-07T11:08:56;18.00;84.20
71837;DHT22;59686;51.716;7.016;2023-05-07T11:11:44;18.00;84.10
71837;DHT22;59686;51.716;7.016;2023-05-07T11:14:11;18.00;83.90
71837;DHT22;59686;51.716;7.016;2023-05-07T11:16:37;18.00;83.80
71837;DHT22;59686;51.716;7.016;2023-05-07T11:19:04;18.10;83.90
71837;DHT22;59686;51.716;7.016;2023-05-07T11:21:36;18.00;83.70
71837;DHT22;59686;51.716;7.016;2023-05-07T11:24:03;18.10;83.60
71837;DHT22;59686;51.716;7.016;2023-05-07T11:26:41;18.10;83.60
71837;DHT22;59686;51.716;7.016;2023-05-07T11:29:13;18.10;83.40
71837;DHT22;59686;51.716;7.016;2023-05-07T11:31:39;18.10;83.40
71837;DHT22;59686;51.716;7.016;2023-05-07T11:34:05;18.10;83.30
71837;DHT22;59686;51.716;7.016;2023-05-07T11:36:32;18.20;83.20
71837;DHT22;59686;51.716;7.016;2023-05-07T11:38:58;18.20;83.10
71837;DHT22;59686;51.716;7.016;2023-05-07T11:41:36;18.20;83.00
71837;DHT22;59686;51.716;7.016;2023-05-07T11:44:02;18.20;83.10
71837;DHT22;59686;51.716;7.016;2023-05-07T11:46:28;18.30;83.20
71837;DHT22;59686;51.716;7.016;2023-05-07T11:48:55;18.30;83.20
71837;DHT22;59686;51.716;7.016;2023-05-07T11:51:23;18.30;82.90
71837;DHT22;59686;51.716;7.016;2023-05-07T11:53:50;18.30;83.10
71837;DHT22;59686;51.716;7.016;2023-05-07T11:56:17;18.40;83.30
71837;DHT22;59686;51.716;7.016;2023-05-07T11:58:44;18.40;83.20
71837;DHT22;59686;51.716;7.016;2023-05-07T12:01:12;18.40;83.10
71837;DHT22;59686;51.716;7.016;2023-05-07T12:03:40;18.40;83.00
71837;DHT22;59686;51.716;7.016;2023-05-07T12:06:09;18.50;83.10
71837;DHT22;59686;51.716;7.016;2023-05-07T12:08:40;18.50;83.00
71837;DHT22;59686;51.716;7.016;2023-05-07T12:11:14;18.50;82.90
71837;DHT22;59686;51.716;7.016;2023-05-07T12:13:41;18.50;82.80
71837;DHT22;59686;51.716;7.016;2023-05-07T12:16:07;18.60;82.80
71837;DHT22;59686;51.716;7.016;2023-05-07T12:18:35;18.60;82.70
71837;DHT22;59686;51.716;7.016;2023-05-07T12:21:02;18.60;82.70
71837;DHT22;59686;51.716;7.016;2023-05-07T12:23:28;18.60;82.70
71837;DHT22;59686;51.716;7.016;2023-05-07T12:25:55;18.60;82.70
71837;DHT22;59686;51.716;7.016;2023-05-07T12:28:21;18.60;82.70
71837;DHT22;59686;51.716;7.016;2023-05-07T12:30:48;18.70;82.70
71837;DHT22;59686;51.716;7.016;2023-05-07T12:33:26;18.70;82.60
71837;DHT22;59686;51.716;7.016;2023-05-07T12:35:54;18.70;82.60
71837;DHT22;59686;51.716;7.016;2023-05-07T12:38:20;18.70;82.60
71837;DHT22;59686;51.716;7.016;2023-05-07T12:40:48;18.70;82.70
71837;DHT22;59686;51.716;7.016;2023-05-07T12:43:27;18.70;82.60
71837;DHT22;59686;51.716;7.016;2023-05-07T12:45:59;18.70;82.60
71837;DHT22;59686;51.716;7.016;2023-05-07T12:48:25;18.80;82.60
71837;DHT22;59686;51.716;7.016;2023-05-07T12:51:03;18.80;82.50
71837;DHT22;59686;51.716;7.016;2023-05-07T12:53:30;18.80;82.50
71837;DHT22;59686;51.716;7.016;2023-05-07T12:55:58;18.80;82.50
71837;DHT22;59686;51.716;7.016;2023-05-07T12:58:33;18.80;82.50
71837;DHT22;59686;51.716;7.016;2023-05-07T13:01:00;18.80;82.30
71837;DHT22;59686;51.716;7.016;2023-05-07T13:03:32;18.90;82.40
71837;DHT22;59686;51.716;7.016;2023-05-07T13:06:00;18.90;82.20
71837;DHT22;59686;51.716;7.016;2023-05-07T13:08:32;18.90;82.10
71837;DHT22;59686;51.716;7.016;2023-05-07T13:10:59;18.90;82.10
71837;DHT22;59686;51.716;7.016;2023-05-07T13:13:25;18.90;82.00
71837;DHT22;59686;51.716;7.016;2023-05-07T13:15:51;18.90;82.00
71837;DHT22;59686;51.716;7.016;2023-05-07T13:18:17;18.80;81.90
71837;DHT22;59686;51.716;7.016;2023-05-07T13:20:43;18.90;81.80
71837;DHT22;59686;51.716;7.016;2023-05-07T13:23:08;18.90;81.90
71837;DHT22;59686;51.716;7.016;2023-05-07T13:25:34;19.00;81.90
71837;DHT22;59686;51.716;7.016;2023-05-07T13:28:00;19.00;81.80
71837;DHT22;59686;51.716;7.016;2023-05-07T13:30:26;19.00;81.80
71837;DHT22;59686;51.716;7.016;2023-05-07T13:32:55;19.00;81.70
71837;DHT22;59686;51.716;7.016;2023-05-07T13:35:33;19.00;81.60
71837;DHT22;59686;51.716;7.016;2023-05-07T13:37:58;19.00;81.60
71837;DHT22;59686;51.716;7.016;2023-05-07T13:40:24;19.00;81.70
71837;DHT22;59686;51.716;7.016;2023-05-07T13:42:50;19.00;81.70
71837;DHT22;59686;51.716;7.016;2023-05-07T13:45:17;19.10;81.70
71837;DHT22;59686;51.716;7.016;2023-05-07T13:47:43;19.10;81.10
71837;DHT22;59686;51.716;7.016;2023-05-07T13:50:10;19.10;81.00
71837;DHT22;59686;51.716;7.016;2023-05-07T13:52:37;19.20;80.40
71837;DHT22;59686;51.716;7.016;2023-05-07T13:55:03;19.20;80.00
71837;DHT22;59686;51.716;7.016;2023-05-07T13:57:29;19.20;79.70
71837;DHT22;59686;51.716;7.016;2023-05-07T13:59:55;19.20;79.70
71837;DHT22;59686;51.716;7.016;2023-05-07T14:02:20;19.20;79.30
71837;DHT22;59686;51.716;7.016;2023-05-07T14:04:46;19.30;79.30
71837;DHT22;59686;51.716;7.016;2023-05-07T14:07:12;19.20;79.10
71837;DHT22;59686;51.716;7.016;2023-05-07T14:09:37;19.30;79.10
71837;DHT22;59686;51.716;7.016;2023-05-07T14:12:03;19.30;79.50
71837;DHT22;59686;51.716;7.016;2023-05-07T14:14:29;19.30;79.30
71837;DHT22;59686;51.716;7.016;2023-05-07T14:16:55;19.30;79.10
71837;DHT22;59686;51.716;7.016;2023-05-07T14:19:20;19.20;79.10
71837;DHT22;59686;51.716;7.016;2023-05-07T14:21:48;19.20;79.50
71837;DHT22;59686;51.716;7.016;2023-05-07T14:24:14;19.20;79.90
71837;DHT22;59686;51.716;7.016;2023-05-07T14:26:40;19.20;80.40
71837;DHT22;59686;51.716;7.016;2023-05-07T14:29:05;19.10;80.40
71837;DHT22;59686;51.716;7.016;2023-05-07T14:31:31;19.20;80.40
71837;DHT22;59686;51.716;7.016;2023-05-07T14:33:58;19.20;80.00
71837;DHT22;59686;51.716;7.016;2023-05-07T14:36:24;19.20;79.70
71837;DHT22;59686;51.716;7.016;2023-05-07T14:38:55;19.20;79.50
71837;DHT22;59686;51.716;7.016;2023-05-07T14:41:22;19.30;79.70
71837;DHT22;59686;51.716;7.016;2023-05-07T14:43:48;19.30;79.90
71837;DHT22;59686;51.716;7.016;2023-05-07T14:46:19;19.30;80.10
71837;DHT22;59686;51.716;7.016;2023-05-07T14:48:45;19.30;79.80
71837;DHT22;59686;51.716;7.016;2023-05-07T14:51:14;19.40;79.50
71837;DHT22;59686;51.716;7.016;2023-05-07T14:53:44;19.30;79.60
71837;DHT22;59686;51.716;7.016;2023-05-07T14:56:09;19.40;79.40
71837;DHT22;59686;51.716;7.016;2023-05-07T14:58:35;19.30;79.30
71837;DHT22;59686;51.716;7.016;2023-05-07T15:01:01;19.40;79.30
71837;DHT22;59686;51.716;7.016;2023-05-07T15:03:27;19.40;79.30
71837;DHT22;59686;51.716;7.016;2023-05-07T15:05:53;19.40;79.40
71837;DHT22;59686;51.716;7.016;2023-05-07T15:08:19;19.50;80.00
71837;DHT22;59686;51.716;7.016;2023-05-07T15:10:45;19.50;80.00
71837;DHT22;59686;51.716;7.016;2023-05-07T15:13:11;19.50;80.00
71837;DHT22;59686;51.716;7.016;2023-05-07T15:15:39;19.50;80.00
71837;DHT22;59686;51.716;7.016;2023-05-07T15:18:05;19.50;79.90
71837;DHT22;59686;51.716;7.016;2023-05-07T15:20:31;19.40;79.90
71837;DHT22;59686;51.716;7.016;2023-05-07T15:22:57;19.40;80.00
71837;DHT22;59686;51.716;7.016;2023-05-07T15:25:23;19.40;80.20
71837;DHT22;59686;51.716;7.016;2023-05-07T15:27:49;19.40;80.20
71837;DHT22;59686;51.716;7.016;2023-05-07T15:30:15;19.50;80.30
71837;DHT22;59686;51.716;7.016;2023-05-07T15:32:42;19.40;80.30
71837;DHT22;59686;51.716;7.016;2023-05-07T15:35:08;19.40;80.40
71837;DHT22;59686;51.716;7.016;2023-05-07T15:37:34;19.40;80.50